createdAt,value
2023-03-06T00:02:11.344Z,39.23
2023-03-06T00:04:37.734Z,39.20
2023-03-06T00:07:04.120Z,37.02
2023-03-06T00:09:30.511Z,36.77
2023-03-06T00:11:56.893Z,37.08
2023-03-06T00:14:23.349Z,36.07
2023-03-06T00:16:49.754Z,37.75
2023-03-06T00:19:16.120Z,37.19
2023-03-06T00:21:42.534Z,37.47
2023-03-06T00:24:08.951Z,38.63
2023-03-06T00:26:35.312Z,38.46
2023-03-06T00:29:01.679Z,38.04
2023-03-06T00:31:28.236Z,39.08
2023-03-06T00:33:54.699Z,38.90
2023-03-06T00:36:21.108Z,39.86
2023-03-06T00:38:47.494Z,40.85
2023-03-06T00:41:13.891Z,42.15
2023-03-06T00:43:40.275Z,42.19
2023-03-06T00:46:06.796Z,43.09
2023-03-06T00:48:33.187Z,43.25
2023-03-06T00:50:59.609Z,43.12
2023-03-06T00:53:25.988Z,42.72
2023-03-06T00:55:52.375Z,42.81
2023-03-06T00:58:18.767Z,42.82
2023-03-06T01:00:45.199Z,42.62
2023-03-06T01:03:11.696Z,44.14
2023-03-06T01:05:38.058Z,43.74
2023-03-06T01:08:04.435Z,43.48
2023-03-06T01:10:30.800Z,43.75
2023-03-06T01:12:57.207Z,43.38
2023-03-06T01:15:23.569Z,43.29
2023-03-06T01:17:49.957Z,44.29
2023-03-06T01:20:16.381Z,44.34
2023-03-06T01:22:42.773Z,44.70
2023-03-06T01:25:09.168Z,44.89
2023-03-06T01:27:35.538Z,44.13
2023-03-06T01:30:01.922Z,43.51
2023-03-06T01:32:28.400Z,43.45
2023-03-06T01:34:57.331Z,42.11
2023-03-06T01:37:23.746Z,43.19
2023-03-06T01:39:50.187Z,44.23
2023-03-06T01:42:16.578Z,43.39
2023-03-06T01:44:43.046Z,43.08
2023-03-06T01:47:09.429Z,43.49
2023-03-06T01:49:38.608Z,42.65
2023-03-06T01:52:05.016Z,43.61
2023-03-06T01:54:31.416Z,42.44
2023-03-06T01:56:57.802Z,42.19
2023-03-06T01:59:24.164Z,42.85
2023-03-06T02:01:50.629Z,42.41
2023-03-06T02:04:17.025Z,42.41
2023-03-06T02:06:43.472Z,42.59
2023-03-06T02:09:09.882Z,43.48
2023-03-06T02:11:36.264Z,42.47
2023-03-06T02:14:02.654Z,42.91
2023-03-06T02:16:29.210Z,43.57
2023-03-06T02:18:55.589Z,44.25
2023-03-06T02:21:23.003Z,44.13
2023-03-06T02:23:49.393Z,43.67
2023-03-06T02:26:15.791Z,43.99
2023-03-06T02:28:42.159Z,44.38
2023-03-06T02:31:08.588Z,42.87
2023-03-06T02:33:35.015Z,42.54
2023-03-06T02:36:01.466Z,42.58
2023-03-06T02:38:27.886Z,42.84
2023-03-06T02:40:54.393Z,42.97
2023-03-06T02:43:20.816Z,42.52
2023-03-06T02:45:47.255Z,41.85
2023-03-06T02:48:14.721Z,42.73
2023-03-06T02:50:41.088Z,42.56
2023-03-06T02:53:07.550Z,42.42
2023-03-06T02:55:33.944Z,41.68
2023-03-06T02:58:00.623Z,42.32
2023-03-06T03:00:26.992Z,43.10
2023-03-06T03:02:53.344Z,42.67
2023-03-06T03:05:19.704Z,42.69
2023-03-06T03:07:46.091Z,42.14
2023-03-06T03:10:12.471Z,42.37
2023-03-06T03:12:38.846Z,43.38
2023-03-06T03:15:05.205Z,43.40
2023-03-06T03:17:31.574Z,42.04
2023-03-06T03:19:57.936Z,43.28
2023-03-06T03:22:24.356Z,43.63
2023-03-06T03:24:50.832Z,43.47
2023-03-06T03:27:17.441Z,43.54
2023-03-06T03:29:43.883Z,43.38
2023-03-06T03:32:10.355Z,43.10
2023-03-06T03:34:36.733Z,43.90
2023-03-06T03:37:03.117Z,43.70
2023-03-06T03:39:29.579Z,43.67
2023-03-06T03:41:56.002Z,44.40
2023-03-06T03:44:22.386Z,43.79
2023-03-06T03:46:48.828Z,43.78
2023-03-06T03:49:15.262Z,43.73
2023-03-06T03:51:41.655Z,44.34
2023-03-06T03:54:08.027Z,44.66
2023-03-06T03:56:34.454Z,44.52
2023-03-06T03:59:00.840Z,43.70
2023-03-06T04:01:27.227Z,45.02
2023-03-06T04:03:53.611Z,44.40
2023-03-06T04:06:20.110Z,45.30
2023-03-06T04:08:46.479Z,45.78
2023-03-06T04:11:12.892Z,45.06
2023-03-06T04:13:39.283Z,46.81
2023-03-06T04:16:05.856Z,47.46
2023-03-06T04:18:32.259Z,47.07
2023-03-06T04:20:58.677Z,46.14
2023-03-06T04:23:25.076Z,46.16
2023-03-06T04:25:51.475Z,46.79
2023-03-06T04:28:17.845Z,45.04
2023-03-06T04:30:44.229Z,45.59
2023-03-06T04:33:10.606Z,45.11
2023-03-06T04:35:37.014Z,45.42
2023-03-06T04:38:03.413Z,45.56
2023-03-06T04:40:29.798Z,46.94
2023-03-06T04:42:56.239Z,46.32
2023-03-06T04:45:22.763Z,45.42
2023-03-06T04:47:49.144Z,45.82
2023-03-06T04:50:15.520Z,46.06
2023-03-06T04:52:41.930Z,45.38
2023-03-06T04:55:09.308Z,45.63
2023-03-06T04:57:35.686Z,45.42
2023-03-06T05:00:02.049Z,45.39
2023-03-06T05:02:28.443Z,45.18
2023-03-06T05:04:54.873Z,45.71
2023-03-06T05:07:21.244Z,45.70
2023-03-06T05:09:47.634Z,45.95
2023-03-06T05:12:14.089Z,46.47
2023-03-06T05:14:40.460Z,46.08
2023-03-06T05:17:06.934Z,45.20
2023-03-06T05:19:33.298Z,45.97
2023-03-06T05:21:59.790Z,45.15
2023-03-06T05:24:26.178Z,45.79
2023-03-06T05:26:52.542Z,46.49
2023-03-06T05:29:18.949Z,45.78
2023-03-06T05:31:45.374Z,44.55
2023-03-06T05:34:11.767Z,45.73
2023-03-06T05:36:38.192Z,46.04
2023-03-06T05:39:04.553Z,43.97
2023-03-06T05:41:31.085Z,45.14
2023-03-06T05:43:57.554Z,44.56
2023-03-06T05:46:23.937Z,45.95
2023-03-06T05:48:50.320Z,44.75
2023-03-06T05:51:16.742Z,45.65
2023-03-06T05:53:43.210Z,46.38
2023-03-06T05:56:09.590Z,45.56
2023-03-06T05:58:36.881Z,44.94
2023-03-06T06:01:03.259Z,43.72
2023-03-06T06:03:29.657Z,44.85
2023-03-06T06:05:56.061Z,45.42
2023-03-06T06:08:22.434Z,44.87
2023-03-06T06:10:50.453Z,45.38
2023-03-06T06:13:18.644Z,45.17
2023-03-06T06:15:45.074Z,45.41
2023-03-06T06:18:11.457Z,46.98
2023-03-06T06:20:38.888Z,46.53
2023-03-06T06:23:05.262Z,46.11
2023-03-06T06:25:31.646Z,46.01
2023-03-06T06:27:58.032Z,46.44
2023-03-06T06:30:24.394Z,46.62
2023-03-06T06:32:50.757Z,47.25
2023-03-06T06:35:17.138Z,45.34
2023-03-06T06:37:43.550Z,44.78
2023-03-06T06:40:09.928Z,45.64
2023-03-06T06:42:39.924Z,44.80
2023-03-06T06:45:06.617Z,44.84
2023-03-06T06:47:33.312Z,44.35
2023-03-06T06:49:59.990Z,44.23
2023-03-06T06:52:26.405Z,43.60
2023-03-06T06:54:52.825Z,44.49
2023-03-06T06:57:19.278Z,46.22
2023-03-06T06:59:45.667Z,47.04
2023-03-06T07:02:12.137Z,46.77
2023-03-06T07:04:40.967Z,46.34
2023-03-06T07:07:10.724Z,46.49
2023-03-06T07:09:37.204Z,46.32
2023-03-06T07:12:03.576Z,47.56
2023-03-06T07:14:29.991Z,41.93
2023-03-06T07:16:56.365Z,44.41
2023-03-06T07:19:22.772Z,45.47
2023-03-06T07:21:49.180Z,45.39
2023-03-06T07:24:15.561Z,44.66
2023-03-06T07:26:41.941Z,44.09
2023-03-06T07:29:08.313Z,44.19
2023-03-06T07:31:34.741Z,45.69
2023-03-06T07:34:03.151Z,45.17
2023-03-06T07:36:31.163Z,45.27
2023-03-06T07:38:57.558Z,46.57
2023-03-06T07:41:23.960Z,44.56
2023-03-06T07:43:50.408Z,45.37
2023-03-06T07:46:16.887Z,45.14
2023-03-06T07:48:43.278Z,44.89
2023-03-06T07:51:09.645Z,44.96
2023-03-06T07:53:36.014Z,44.27
2023-03-06T07:56:02.397Z,44.64
2023-03-06T07:58:28.758Z,43.92
2023-03-06T08:00:55.171Z,44.59
2023-03-06T08:03:22.973Z,44.91
2023-03-06T08:05:49.381Z,45.98
2023-03-06T08:08:15.786Z,45.18
2023-03-06T08:10:42.173Z,44.97
2023-03-06T08:13:08.558Z,46.79
2023-03-06T08:15:34.935Z,45.26
2023-03-06T08:18:01.305Z,44.65
2023-03-06T08:20:27.717Z,44.78
2023-03-06T08:22:54.098Z,45.50
2023-03-06T08:25:20.477Z,44.76
2023-03-06T08:27:46.860Z,44.86
2023-03-06T08:30:13.264Z,46.36
2023-03-06T08:32:39.695Z,46.24
2023-03-06T08:35:06.172Z,45.42
2023-03-06T08:37:32.559Z,46.43
2023-03-06T08:39:58.954Z,45.61
2023-03-06T08:42:25.338Z,46.35
2023-03-06T08:44:51.736Z,46.24
2023-03-06T08:47:18.155Z,46.94
2023-03-06T08:49:44.543Z,45.49
2023-03-06T08:52:10.907Z,46.50
2023-03-06T08:54:37.297Z,46.59
2023-03-06T08:57:03.674Z,46.47
2023-03-06T08:59:30.073Z,46.72
2023-03-06T09:01:56.455Z,47.01
2023-03-06T09:04:22.892Z,45.94
2023-03-06T09:06:49.274Z,46.01
2023-03-06T09:09:15.663Z,45.81
2023-03-06T09:11:42.038Z,44.81
2023-03-06T09:14:08.417Z,43.48
2023-03-06T09:16:34.827Z,45.25
2023-03-06T09:19:01.248Z,44.89
2023-03-06T09:21:27.655Z,44.85
2023-03-06T09:23:54.085Z,44.87
2023-03-06T09:26:20.456Z,44.33
2023-03-06T09:28:46.845Z,45.05
2023-03-06T09:31:13.499Z,45.08
2023-03-06T09:33:39.946Z,44.11
2023-03-06T09:36:06.395Z,44.37
2023-03-06T09:38:32.787Z,44.28
2023-03-06T09:40:59.165Z,44.40
2023-03-06T09:43:25.532Z,44.64
2023-03-06T09:45:53.707Z,43.78
2023-03-06T09:48:20.066Z,44.48
2023-03-06T09:50:46.443Z,43.03
2023-03-06T09:53:14.483Z,43.25
2023-03-06T09:55:40.866Z,42.90
2023-03-06T09:58:07.625Z,43.33
2023-03-06T10:00:34.033Z,42.20
2023-03-06T10:03:00.525Z,42.76
2023-03-06T10:05:26.937Z,42.19
2023-03-06T10:10:36.372Z,43.03
2023-03-06T10:13:02.750Z,40.95
2023-03-06T10:15:29.198Z,41.60
2023-03-06T10:17:55.630Z,40.87
2023-03-06T10:20:22.151Z,41.41
2023-03-06T10:23:00.604Z,42.11
2023-03-06T10:25:29.631Z,41.92
2023-03-06T10:27:56.052Z,40.32
2023-03-06T10:30:22.560Z,39.91
2023-03-06T10:32:49.565Z,40.48
2023-03-06T10:35:16.125Z,39.75
2023-03-06T10:37:42.491Z,40.21
2023-03-06T10:40:08.926Z,40.54
2023-03-06T10:42:35.360Z,40.48
2023-03-06T10:45:01.774Z,39.44
2023-03-06T10:47:28.252Z,38.58
2023-03-06T10:49:54.641Z,37.98
2023-03-06T10:52:21.017Z,38.29
2023-03-06T10:54:47.443Z,39.07
2023-03-06T10:57:13.822Z,40.10
2023-03-06T10:59:40.231Z,39.96
2023-03-06T11:02:08.037Z,39.39
2023-03-06T11:04:34.491Z,39.89
2023-03-06T11:07:00.909Z,39.96
2023-03-06T11:09:27.275Z,38.92
2023-03-06T11:11:53.643Z,37.30
2023-03-06T11:14:20.041Z,36.83
2023-03-06T11:16:46.449Z,38.17
2023-03-06T11:19:12.876Z,38.14
2023-03-06T11:21:39.271Z,36.99
2023-03-06T11:24:05.640Z,36.64
2023-03-06T11:26:32.547Z,35.64
2023-03-06T11:28:59.111Z,36.67
2023-03-06T11:31:25.573Z,37.55
2023-03-06T11:33:52.017Z,36.22
2023-03-06T11:36:18.396Z,36.13
2023-03-06T11:38:44.773Z,37.64
2023-03-06T11:41:11.374Z,36.56
2023-03-06T11:43:37.802Z,31.29
2023-03-06T11:46:04.171Z,32.12
2023-03-06T11:48:30.609Z,33.45
2023-03-06T11:50:56.974Z,32.72
2023-03-06T11:53:23.333Z,32.33
2023-03-06T11:55:52.553Z,30.43
2023-03-06T11:58:18.921Z,32.48
2023-03-06T12:00:45.334Z,32.65
2023-03-06T12:03:11.733Z,33.11
2023-03-06T12:05:38.185Z,32.41
2023-03-06T12:08:04.649Z,29.33
2023-03-06T12:10:31.127Z,30.05
2023-03-06T12:12:57.503Z,29.03
2023-03-06T12:15:23.903Z,28.25
2023-03-06T12:17:50.306Z,28.59
2023-03-06T12:20:16.665Z,28.65
2023-03-06T12:22:44.359Z,28.14
2023-03-06T12:25:12.778Z,28.47
2023-03-06T12:27:39.172Z,31.43
2023-03-06T12:30:05.574Z,33.15
2023-03-06T12:32:31.997Z,32.00
2023-03-06T12:34:58.405Z,32.61
2023-03-06T12:37:24.797Z,31.25
2023-03-06T12:39:51.171Z,31.65
2023-03-06T12:42:23.108Z,30.75
2023-03-06T12:44:50.045Z,30.08
2023-03-06T12:47:16.442Z,30.15
2023-03-06T12:49:42.874Z,29.46
2023-03-06T12:52:09.814Z,28.81
2023-03-06T12:54:36.266Z,30.51
2023-03-06T12:57:02.734Z,29.37
2023-03-06T12:59:29.154Z,30.12
2023-03-06T13:01:55.575Z,28.70
2023-03-06T13:04:22.039Z,29.50
2023-03-06T13:06:50.970Z,28.62
2023-03-06T13:09:17.678Z,28.58
2023-03-06T13:11:44.097Z,29.36
2023-03-06T13:14:10.474Z,28.49
2023-03-06T13:16:36.928Z,26.17
2023-03-06T13:19:03.362Z,26.63
2023-03-06T13:21:29.740Z,29.22
2023-03-06T13:23:56.102Z,27.23
2023-03-06T13:26:22.501Z,27.70
2023-03-06T13:28:48.898Z,26.42
2023-03-06T13:31:26.352Z,26.44
2023-03-06T13:33:53.760Z,26.69
2023-03-06T13:36:20.272Z,25.14
2023-03-06T13:38:46.642Z,27.96
2023-03-06T13:41:13.007Z,27.36
2023-03-06T13:43:39.387Z,26.61
2023-03-06T13:46:05.807Z,27.66
2023-03-06T13:48:47.656Z,26.90
2023-03-06T13:51:14.130Z,26.20
2023-03-06T13:53:40.569Z,25.28
2023-03-06T13:56:07.100Z,23.99
2023-03-06T13:58:33.476Z,23.40
2023-03-06T14:00:59.887Z,24.33
2023-03-06T14:03:26.318Z,21.35
2023-03-06T14:05:52.714Z,20.42
2023-03-06T14:08:19.113Z,19.32
2023-03-06T14:10:45.492Z,18.29
2023-03-06T14:13:13.314Z,18.22
2023-03-06T14:26:58.708Z,17.83
2023-03-06T14:29:27.580Z,18.97
2023-03-06T14:32:01.312Z,18.70
2023-03-06T14:34:27.757Z,18.19
2023-03-06T14:36:54.121Z,17.66
2023-03-06T14:39:20.521Z,16.56
2023-03-06T14:41:46.911Z,17.11
2023-03-06T14:44:13.274Z,16.89
2023-03-06T14:46:39.658Z,16.46
2023-03-06T14:49:06.044Z,16.51
2023-03-06T14:51:32.433Z,18.22
2023-03-06T14:53:58.907Z,17.64
2023-03-06T14:56:25.290Z,18.71
2023-03-06T14:58:51.651Z,19.29
2023-03-06T15:01:18.147Z,19.02
2023-03-06T15:03:44.658Z,18.57
2023-03-06T15:06:11.054Z,17.79
2023-03-06T15:08:37.434Z,18.34
2023-03-06T15:11:03.867Z,18.24
2023-03-06T15:13:30.254Z,17.60
2023-03-06T15:15:56.656Z,18.71
2023-03-06T15:18:23.109Z,18.56
2023-03-06T15:20:49.474Z,17.70
2023-03-06T15:23:15.864Z,17.17
2023-03-06T15:25:42.323Z,17.84
2023-03-06T15:28:08.709Z,18.75
2023-03-06T15:30:35.088Z,19.28
2023-03-06T15:33:01.479Z,21.06
2023-03-06T15:35:27.885Z,19.62
2023-03-06T15:37:54.350Z,20.37
2023-03-06T15:40:20.786Z,21.49
2023-03-06T15:42:47.201Z,20.78
2023-03-06T15:45:13.579Z,19.91
2023-03-06T15:47:39.964Z,18.54
2023-03-06T15:50:06.349Z,18.88
2023-03-06T15:52:32.732Z,18.67
2023-03-06T15:54:59.148Z,17.91
2023-03-06T15:57:25.522Z,17.27
2023-03-06T15:59:51.908Z,16.97
2023-03-06T16:02:18.300Z,16.97
2023-03-06T16:04:44.692Z,16.21
2023-03-06T16:07:11.065Z,15.45
2023-03-06T16:09:37.466Z,15.42
2023-03-06T16:12:03.862Z,14.84
2023-03-06T16:14:30.260Z,14.52
2023-03-06T16:16:56.776Z,13.74
2023-03-06T16:19:26.264Z,13.54
2023-03-06T16:21:53.480Z,13.53
2023-03-06T16:24:19.983Z,13.39
2023-03-06T16:26:46.354Z,14.23
2023-03-06T16:29:12.747Z,13.83
2023-03-06T16:31:39.099Z,12.09
2023-03-06T16:34:06.944Z,11.76
2023-03-06T16:36:33.353Z,11.27
2023-03-06T16:38:59.732Z,10.89
2023-03-06T16:41:26.197Z,10.62
2023-03-06T16:43:52.583Z,10.76
2023-03-06T16:46:19.022Z,11.00
2023-03-06T16:48:45.453Z,10.66
2023-03-06T16:51:11.834Z,10.90
2023-03-06T16:53:38.223Z,10.83
2023-03-06T16:56:04.682Z,10.10
2023-03-06T16:58:31.106Z,10.11
2023-03-06T17:00:57.502Z,10.48
2023-03-06T17:03:23.916Z,10.67
2023-03-06T17:05:50.298Z,10.30
2023-03-06T17:08:16.677Z,11.23
2023-03-06T17:10:43.084Z,11.22
2023-03-06T17:13:09.461Z,11.23
2023-03-06T17:15:35.851Z,10.92
2023-03-06T17:18:02.307Z,11.37
2023-03-06T17:20:28.734Z,11.56
2023-03-06T17:22:55.171Z,11.37
2023-03-06T17:25:21.606Z,11.75
2023-03-06T17:27:47.986Z,11.65
2023-03-06T17:30:14.378Z,11.62
2023-03-06T17:32:40.899Z,11.54
2023-03-06T17:35:07.347Z,11.54
2023-03-06T17:37:33.879Z,11.25
2023-03-06T17:40:00.379Z,11.56
2023-03-06T17:42:26.763Z,11.09
2023-03-06T17:44:53.171Z,10.02
2023-03-06T17:47:20.631Z,9.17
2023-03-06T17:49:47.047Z,12.14
2023-03-06T17:52:13.417Z,12.88
2023-03-06T17:54:39.837Z,13.20
2023-03-06T17:57:06.206Z,13.18
2023-03-06T17:59:32.574Z,12.76
2023-03-06T18:01:59.026Z,12.55
2023-03-06T18:04:25.457Z,13.44
2023-03-06T18:06:51.831Z,12.91
2023-03-06T18:09:18.261Z,13.13
2023-03-06T18:11:44.683Z,12.75
2023-03-06T18:14:11.080Z,12.95
2023-03-06T18:16:37.518Z,13.00
2023-03-06T18:19:03.924Z,12.73
2023-03-06T18:21:30.306Z,12.96
2023-03-06T18:23:56.716Z,12.69
2023-03-06T18:26:23.181Z,12.90
2023-03-06T18:28:49.552Z,12.13
2023-03-06T18:31:15.964Z,11.65
2023-03-06T18:33:42.385Z,12.02
2023-03-06T18:36:08.756Z,12.34
2023-03-06T18:38:35.134Z,12.13
2023-03-06T18:41:01.533Z,11.84
2023-03-06T18:43:28.077Z,11.76
2023-03-06T18:45:54.484Z,12.31
2023-03-06T18:48:20.886Z,12.02
2023-03-06T18:50:47.246Z,12.35
2023-03-06T18:53:13.634Z,12.18
2023-03-06T18:55:40.116Z,12.44
2023-03-06T18:58:06.509Z,13.27
2023-03-06T19:00:32.886Z,13.01
2023-03-06T19:02:59.374Z,12.03
2023-03-06T19:05:25.865Z,11.83
2023-03-06T19:07:52.261Z,11.80
2023-03-06T19:10:18.669Z,12.43
2023-03-06T19:12:45.127Z,12.88
2023-03-06T19:15:11.532Z,12.30
2023-03-06T19:17:37.970Z,11.84
2023-03-06T19:20:04.359Z,12.33
2023-03-06T19:22:31.806Z,12.28
2023-03-06T19:24:58.235Z,11.50
2023-03-06T19:27:24.611Z,11.95
2023-03-06T19:29:51.036Z,11.53
2023-03-06T19:32:17.618Z,12.56
2023-03-06T19:34:44.082Z,12.12
2023-03-06T19:37:10.468Z,13.04
2023-03-06T19:39:36.856Z,13.21
2023-03-06T19:42:03.289Z,13.13
2023-03-06T19:44:29.707Z,13.23
2023-03-06T19:46:56.205Z,13.32
2023-03-06T19:49:22.586Z,13.61
2023-03-06T19:51:49.009Z,13.95
2023-03-06T19:54:15.718Z,13.85
2023-03-06T19:56:43.124Z,13.62
2023-03-06T19:59:09.527Z,14.11
2023-03-06T20:01:38.074Z,14.00
2023-03-06T20:04:04.528Z,14.71
2023-03-06T20:06:30.900Z,13.96
2023-03-06T20:08:57.279Z,13.72
2023-03-06T20:11:25.540Z,13.87
2023-03-06T20:13:51.910Z,13.47
2023-03-06T20:16:18.284Z,13.53
2023-03-06T20:18:47.530Z,13.55
2023-03-06T20:21:13.983Z,13.74
2023-03-06T20:23:40.396Z,14.11
2023-03-06T20:26:06.874Z,14.36
2023-03-06T20:28:33.337Z,13.80
2023-03-06T20:30:59.766Z,14.88
2023-03-06T20:33:26.266Z,14.62
2023-03-06T20:35:52.874Z,14.95
2023-03-06T20:38:19.268Z,15.04
2023-03-06T20:40:45.684Z,14.42
2023-03-06T20:43:12.213Z,14.61
2023-03-06T20:45:38.630Z,14.52
2023-03-06T20:48:05.063Z,14.23
2023-03-06T20:50:33.373Z,14.31
2023-03-06T20:52:59.863Z,15.46
2023-03-06T20:55:26.346Z,15.10
2023-03-06T20:57:52.780Z,14.68
2023-03-06T21:00:19.162Z,14.76
2023-03-06T21:02:45.634Z,14.66
2023-03-06T21:05:12.075Z,15.13
2023-03-06T21:07:38.503Z,14.67
2023-03-06T21:10:04.889Z,14.77
2023-03-06T21:12:31.301Z,14.02
2023-03-06T21:14:57.715Z,14.66
2023-03-06T21:17:24.102Z,14.21
2023-03-06T21:19:50.508Z,14.37
2023-03-06T21:22:16.922Z,13.82
2023-03-06T21:24:43.354Z,14.59
2023-03-06T21:27:09.775Z,14.93
2023-03-06T21:29:36.159Z,14.42
2023-03-06T21:32:02.607Z,14.32
2023-03-06T21:34:29.032Z,14.62
2023-03-06T21:36:55.479Z,14.13
2023-03-06T21:39:21.855Z,14.92
2023-03-06T21:41:48.277Z,14.99
2023-03-06T21:44:14.674Z,14.21
2023-03-06T21:46:41.077Z,13.90
2023-03-06T21:49:07.475Z,14.34
2023-03-06T21:51:33.958Z,14.40
2023-03-06T21:54:00.354Z,14.56
2023-03-06T21:56:29.040Z,14.64
2023-03-06T21:58:55.457Z,15.00
2023-03-06T22:01:21.933Z,17.49
2023-03-06T22:03:48.418Z,16.43
2023-03-06T22:06:14.862Z,14.12
2023-03-06T22:08:41.227Z,15.06
2023-03-06T22:11:07.620Z,14.34
2023-03-06T22:13:34.021Z,14.80
2023-03-06T22:16:00.381Z,14.07
2023-03-06T22:18:26.758Z,14.32
2023-03-06T22:20:53.164Z,14.58
2023-03-06T22:23:19.567Z,14.48
2023-03-06T22:25:45.960Z,14.50
2023-03-06T22:28:12.333Z,15.09
2023-03-06T22:30:38.736Z,15.20
2023-03-06T22:33:05.213Z,14.87
2023-03-06T22:35:31.596Z,14.46
2023-03-06T22:37:58.074Z,14.62
2023-03-06T22:40:24.466Z,14.46
2023-03-06T22:42:50.861Z,14.49
2023-03-06T22:45:17.253Z,14.34
2023-03-06T22:47:43.676Z,14.50
2023-03-06T22:50:10.054Z,14.72
2023-03-06T22:52:36.454Z,13.82
2023-03-06T22:55:02.851Z,14.27
2023-03-06T22:57:29.238Z,14.42
2023-03-06T22:59:55.610Z,13.72
2023-03-06T23:02:22.028Z,13.39
2023-03-06T23:04:48.421Z,13.82
2023-03-06T23:07:14.797Z,13.42
2023-03-06T23:09:41.182Z,14.05
2023-03-06T23:12:07.563Z,14.32
2023-03-06T23:14:33.984Z,13.65
2023-03-06T23:17:00.412Z,14.01
2023-03-06T23:19:26.807Z,14.01
2023-03-06T23:21:53.199Z,13.90
2023-03-06T23:24:19.657Z,14.11
2023-03-06T23:26:46.042Z,13.61
2023-03-06T23:29:12.426Z,13.88
2023-03-06T23:31:38.827Z,14.03
2023-03-06T23:34:05.204Z,13.98
2023-03-06T23:36:31.618Z,14.02
2023-03-06T23:38:57.987Z,14.43
2023-03-06T23:41:24.376Z,14.12
2023-03-06T23:43:51.017Z,14.35
2023-03-06T23:46:18.057Z,14.35
2023-03-06T23:48:44.768Z,14.64
2023-03-06T23:51:11.149Z,14.50
2023-03-06T23:53:37.539Z,14.82
2023-03-06T23:56:05.984Z,14.92
2023-03-06T23:58:32.389Z,14.73
